Hauptseite
METAR-TAF:

METAR-TAF

Flughäfen :

Sarzana, Italien

Militärflugplatz Sarzana-Luni

Breite: 44-05N, Länge: 009-59E, Höhe: 9 m

Beobachtung

Neuester Wetterbericht von vor 8 Stunden und 56 Minuten, um 14:55 UTC
Wind 4 kt aus Süd/Südost
Temperatur 11°C
Luftfeuchtigkeit 76%
Luftdruck 1016 hPa
Sichtweite: 8000 m
Durchbrochene Bewölkung in der Höhe von 2500 ft

METAR: LIQW 181455Z 15004KT 8000 BKN025 11/07 Q1016 RMK OVC SCT070 VIS MIN 8000 WIND THR18 14005KT BLU

Zeit: 00:51 (23:51 UTC)


TAF: fehlend

Wetterbeobachtungen und Prognosen von mehr als 4000 Flughäfen (METAR und TAF Bericht).

Die verfügbaren Stationen werden durch gelbe und rote Markierungen auf der Karte dargestellt.

Führen Sie die Maus auf sie, um den Namen der Station zu sehen.

Darauf klicken, um die Beobachtung von Wetterbeobachtungen und Prognosen zu sehen.

Um die Karte zu ändern : klicken Sie auf den grünen Tasten mit einem schwarzen Kreuz Zum Vergrößern, auf den grünen Button mit einem Gedankenstrich zu verkleinern, oder auf die grünen Pfeile für benachbarte Karten.


METAR-TAF: